sensor_id;sensor_type;location;lat;lon;timestamp;P1;durP1;ratioP1;P2;durP2;ratioP2
62616;SDS011;62539;51.190;6.808;2023-12-29T00:00:25;2.05;;;1.02;;
62616;SDS011;62539;51.190;6.808;2023-12-29T00:02:51;1.15;;;0.95;;
62616;SDS011;62539;51.190;6.808;2023-12-29T00:05:16;0.73;;;0.73;;
62616;SDS011;62539;51.190;6.808;2023-12-29T00:07:42;2.75;;;1.10;;
62616;SDS011;62539;51.190;6.808;2023-12-29T00:10:07;1.42;;;1.02;;
62616;SDS011;62539;51.190;6.808;2023-12-29T00:12:33;1.20;;;0.90;;
62616;SDS011;62539;51.190;6.808;2023-12-29T00:14:59;2.28;;;0.90;;
62616;SDS011;62539;51.190;6.808;2023-12-29T00:17:24;2.33;;;1.10;;
62616;SDS011;62539;51.190;6.808;2023-12-29T00:19:50;1.33;;;0.90;;
62616;SDS011;62539;51.190;6.808;2023-12-29T00:22:15;1.80;;;0.80;;
62616;SDS011;62539;51.190;6.808;2023-12-29T00:24:41;1.92;;;0.90;;
62616;SDS011;62539;51.190;6.808;2023-12-29T00:27:06;1.95;;;1.00;;
62616;SDS011;62539;51.190;6.808;2023-12-29T00:29:32;2.60;;;1.00;;
62616;SDS011;62539;51.190;6.808;2023-12-29T00:31:59;1.63;;;0.90;;
62616;SDS011;62539;51.190;6.808;2023-12-29T00:34:27;4.50;;;1.10;;
62616;SDS011;62539;51.190;6.808;2023-12-29T00:36:53;6.32;;;1.48;;
62616;SDS011;62539;51.190;6.808;2023-12-29T00:39:19;4.78;;;1.30;;
62616;SDS011;62539;51.190;6.808;2023-12-29T00:41:44;4.00;;;1.58;;
62616;SDS011;62539;51.190;6.808;2023-12-29T00:44:10;4.03;;;1.60;;
62616;SDS011;62539;51.190;6.808;2023-12-29T00:46:35;2.33;;;1.48;;
62616;SDS011;62539;51.190;6.808;2023-12-29T00:49:01;7.72;;;1.80;;
62616;SDS011;62539;51.190;6.808;2023-12-29T00:51:26;2.55;;;1.40;;
62616;SDS011;62539;51.190;6.808;2023-12-29T00:53:51;5.72;;;1.40;;
62616;SDS011;62539;51.190;6.808;2023-12-29T00:56:17;6.40;;;1.65;;
62616;SDS011;62539;51.190;6.808;2023-12-29T00:58:42;2.35;;;1.50;;
62616;SDS011;62539;51.190;6.808;2023-12-29T01:01:08;2.70;;;1.33;;
62616;SDS011;62539;51.190;6.808;2023-12-29T01:03:36;5.25;;;1.83;;
62616;SDS011;62539;51.190;6.808;2023-12-29T01:06:02;3.97;;;1.55;;
62616;SDS011;62539;51.190;6.808;2023-12-29T01:08:27;3.58;;;1.60;;
62616;SDS011;62539;51.190;6.808;2023-12-29T01:10:53;3.08;;;1.58;;
62616;SDS011;62539;51.190;6.808;2023-12-29T01:13:18;5.90;;;1.50;;
62616;SDS011;62539;51.190;6.808;2023-12-29T01:15:44;3.22;;;1.50;;
62616;SDS011;62539;51.190;6.808;2023-12-29T01:18:10;3.47;;;1.73;;
62616;SDS011;62539;51.190;6.808;2023-12-29T01:20:36;1.92;;;1.40;;
62616;SDS011;62539;51.190;6.808;2023-12-29T01:23:04;1.60;;;1.27;;
62616;SDS011;62539;51.190;6.808;2023-12-29T01:25:30;3.15;;;1.50;;
62616;SDS011;62539;51.190;6.808;2023-12-29T01:27:55;3.58;;;1.70;;
62616;SDS011;62539;51.190;6.808;2023-12-29T01:30:20;3.92;;;1.92;;
62616;SDS011;62539;51.190;6.808;2023-12-29T01:32:46;2.22;;;1.35;;
62616;SDS011;62539;51.190;6.808;2023-12-29T01:35:11;5.80;;;1.60;;
62616;SDS011;62539;51.190;6.808;2023-12-29T01:37:37;3.17;;;1.60;;
62616;SDS011;62539;51.190;6.808;2023-12-29T01:40:03;2.35;;;1.45;;
62616;SDS011;62539;51.190;6.808;2023-12-29T01:42:29;3.08;;;1.45;;
62616;SDS011;62539;51.190;6.808;2023-12-29T01:44:54;2.88;;;1.58;;
62616;SDS011;62539;51.190;6.808;2023-12-29T01:47:21;2.00;;;1.35;;
62616;SDS011;62539;51.190;6.808;2023-12-29T01:49:48;4.93;;;1.70;;
62616;SDS011;62539;51.190;6.808;2023-12-29T01:52:18;2.25;;;1.40;;
62616;SDS011;62539;51.190;6.808;2023-12-29T01:54:46;2.50;;;1.40;;
62616;SDS011;62539;51.190;6.808;2023-12-29T01:57:15;2.10;;;1.30;;
62616;SDS011;62539;51.190;6.808;2023-12-29T01:59:41;3.28;;;1.30;;
62616;SDS011;62539;51.190;6.808;2023-12-29T02:02:10;2.70;;;1.60;;
62616;SDS011;62539;51.190;6.808;2023-12-29T02:04:36;5.57;;;1.30;;
62616;SDS011;62539;51.190;6.808;2023-12-29T02:07:03;1.80;;;1.20;;
62616;SDS011;62539;51.190;6.808;2023-12-29T02:09:28;4.30;;;1.45;;
62616;SDS011;62539;51.190;6.808;2023-12-29T02:11:54;4.03;;;1.40;;
62616;SDS011;62539;51.190;6.808;2023-12-29T02:14:20;2.88;;;1.83;;
62616;SDS011;62539;51.190;6.808;2023-12-29T02:19:38;2.17;;;1.35;;
62616;SDS011;62539;51.190;6.808;2023-12-29T02:22:08;2.53;;;1.38;;
62616;SDS011;62539;51.190;6.808;2023-12-29T02:24:34;1.80;;;1.23;;
62616;SDS011;62539;51.190;6.808;2023-12-29T02:30:08;2.28;;;1.40;;
62616;SDS011;62539;51.190;6.808;2023-12-29T02:32:41;2.95;;;1.38;;
62616;SDS011;62539;51.190;6.808;2023-12-29T02:35:10;1.65;;;1.23;;
62616;SDS011;62539;51.190;6.808;2023-12-29T02:37:43;5.63;;;1.70;;
62616;SDS011;62539;51.190;6.808;2023-12-29T02:40:08;1.80;;;1.40;;
62616;SDS011;62539;51.190;6.808;2023-12-29T02:42:34;3.38;;;1.25;;
62616;SDS011;62539;51.190;6.808;2023-12-29T02:45:00;3.75;;;1.55;;
62616;SDS011;62539;51.190;6.808;2023-12-29T02:47:25;4.00;;;1.30;;
62616;SDS011;62539;51.190;6.808;2023-12-29T02:49:51;2.05;;;1.27;;
62616;SDS011;62539;51.190;6.808;2023-12-29T02:52:17;1.70;;;1.05;;
62616;SDS011;62539;51.190;6.808;2023-12-29T02:54:42;3.38;;;1.40;;
62616;SDS011;62539;51.190;6.808;2023-12-29T02:57:08;2.08;;;1.30;;
62616;SDS011;62539;51.190;6.808;2023-12-29T02:59:33;2.72;;;1.42;;
62616;SDS011;62539;51.190;6.808;2023-12-29T03:01:59;3.28;;;1.30;;
62616;SDS011;62539;51.190;6.808;2023-12-29T03:04:24;1.83;;;1.30;;
62616;SDS011;62539;51.190;6.808;2023-12-29T03:06:50;1.40;;;1.30;;
62616;SDS011;62539;51.190;6.808;2023-12-29T03:09:15;2.15;;;1.17;;
62616;SDS011;62539;51.190;6.808;2023-12-29T03:11:40;3.05;;;1.30;;
62616;SDS011;62539;51.190;6.808;2023-12-29T03:14:06;2.47;;;1.42;;
62616;SDS011;62539;51.190;6.808;2023-12-29T03:16:31;2.20;;;1.13;;
62616;SDS011;62539;51.190;6.808;2023-12-29T03:18:57;3.17;;;1.27;;
62616;SDS011;62539;51.190;6.808;2023-12-29T03:21:22;1.45;;;0.93;;
62616;SDS011;62539;51.190;6.808;2023-12-29T03:23:47;2.00;;;1.10;;
62616;SDS011;62539;51.190;6.808;2023-12-29T03:26:13;1.95;;;1.27;;
62616;SDS011;62539;51.190;6.808;2023-12-29T03:28:38;1.20;;;0.93;;
62616;SDS011;62539;51.190;6.808;2023-12-29T03:31:04;2.28;;;1.10;;
62616;SDS011;62539;51.190;6.808;2023-12-29T03:33:30;2.80;;;1.45;;
62616;SDS011;62539;51.190;6.808;2023-12-29T03:35:55;2.75;;;1.50;;
62616;SDS011;62539;51.190;6.808;2023-12-29T03:38:21;3.40;;;1.35;;
62616;SDS011;62539;51.190;6.808;2023-12-29T03:40:46;1.80;;;1.30;;
62616;SDS011;62539;51.190;6.808;2023-12-29T03:43:12;5.97;;;1.27;;
62616;SDS011;62539;51.190;6.808;2023-12-29T03:45:37;1.85;;;1.00;;
62616;SDS011;62539;51.190;6.808;2023-12-29T03:48:03;2.83;;;1.30;;
62616;SDS011;62539;51.190;6.808;2023-12-29T03:50:28;2.47;;;1.20;;
62616;SDS011;62539;51.190;6.808;2023-12-29T03:52:54;2.55;;;1.33;;
62616;SDS011;62539;51.190;6.808;2023-12-29T03:55:19;2.80;;;1.20;;
62616;SDS011;62539;51.190;6.808;2023-12-29T03:57:44;1.63;;;1.17;;
62616;SDS011;62539;51.190;6.808;2023-12-29T04:00:13;3.00;;;1.10;;
62616;SDS011;62539;51.190;6.808;2023-12-29T04:02:39;1.52;;;0.93;;
62616;SDS011;62539;51.190;6.808;2023-12-29T04:05:06;1.85;;;1.00;;
62616;SDS011;62539;51.190;6.808;2023-12-29T04:07:33;1.83;;;1.13;;
62616;SDS011;62539;51.190;6.808;2023-12-29T04:09:58;1.58;;;1.00;;
62616;SDS011;62539;51.190;6.808;2023-12-29T04:12:24;1.35;;;1.15;;
62616;SDS011;62539;51.190;6.808;2023-12-29T04:14:49;1.42;;;1.00;;
62616;SDS011;62539;51.190;6.808;2023-12-29T04:17:15;5.55;;;1.30;;
62616;SDS011;62539;51.190;6.808;2023-12-29T04:19:40;3.28;;;1.15;;
62616;SDS011;62539;51.190;6.808;2023-12-29T04:22:06;1.20;;;0.98;;
62616;SDS011;62539;51.190;6.808;2023-12-29T04:24:32;2.50;;;1.25;;
62616;SDS011;62539;51.190;6.808;2023-12-29T04:26:59;1.98;;;0.93;;
62616;SDS011;62539;51.190;6.808;2023-12-29T04:29:25;2.53;;;1.30;;
62616;SDS011;62539;51.190;6.808;2023-12-29T04:31:50;2.30;;;1.17;;
62616;SDS011;62539;51.190;6.808;2023-12-29T04:34:16;1.65;;;1.00;;
62616;SDS011;62539;51.190;6.808;2023-12-29T04:36:41;4.95;;;1.25;;
62616;SDS011;62539;51.190;6.808;2023-12-29T04:39:06;2.88;;;1.45;;
62616;SDS011;62539;51.190;6.808;2023-12-29T04:41:34;3.22;;;0.95;;
62616;SDS011;62539;51.190;6.808;2023-12-29T04:44:00;1.35;;;1.00;;
62616;SDS011;62539;51.190;6.808;2023-12-29T04:46:25;1.60;;;1.13;;
62616;SDS011;62539;51.190;6.808;2023-12-29T04:48:51;1.52;;;0.90;;
62616;SDS011;62539;51.190;6.808;2023-12-29T04:51:16;1.73;;;1.00;;
62616;SDS011;62539;51.190;6.808;2023-12-29T04:53:42;1.17;;;0.95;;
62616;SDS011;62539;51.190;6.808;2023-12-29T04:56:07;1.42;;;1.00;;
62616;SDS011;62539;51.190;6.808;2023-12-29T04:58:33;1.83;;;0.98;;
62616;SDS011;62539;51.190;6.808;2023-12-29T05:00:58;1.48;;;1.08;;
62616;SDS011;62539;51.190;6.808;2023-12-29T05:03:24;1.58;;;1.10;;
62616;SDS011;62539;51.190;6.808;2023-12-29T05:05:49;1.10;;;1.00;;
62616;SDS011;62539;51.190;6.808;2023-12-29T05:08:14;2.67;;;1.25;;
62616;SDS011;62539;51.190;6.808;2023-12-29T05:10:40;1.88;;;1.10;;
62616;SDS011;62539;51.190;6.808;2023-12-29T05:13:05;3.97;;;1.10;;
62616;SDS011;62539;51.190;6.808;2023-12-29T05:15:31;2.50;;;1.08;;
62616;SDS011;62539;51.190;6.808;2023-12-29T05:17:56;2.25;;;0.90;;
62616;SDS011;62539;51.190;6.808;2023-12-29T05:20:22;2.35;;;0.82;;
62616;SDS011;62539;51.190;6.808;2023-12-29T05:22:47;1.70;;;0.85;;
62616;SDS011;62539;51.190;6.808;2023-12-29T05:25:12;1.77;;;0.90;;
62616;SDS011;62539;51.190;6.808;2023-12-29T05:27:38;1.30;;;0.93;;
62616;SDS011;62539;51.190;6.808;2023-12-29T05:30:04;2.63;;;1.02;;
62616;SDS011;62539;51.190;6.808;2023-12-29T05:32:30;2.05;;;0.95;;
62616;SDS011;62539;51.190;6.808;2023-12-29T05:34:55;4.22;;;1.00;;
62616;SDS011;62539;51.190;6.808;2023-12-29T05:37:20;1.95;;;1.13;;
62616;SDS011;62539;51.190;6.808;2023-12-29T05:39:46;1.58;;;0.90;;
62616;SDS011;62539;51.190;6.808;2023-12-29T05:42:11;1.30;;;0.90;;
62616;SDS011;62539;51.190;6.808;2023-12-29T05:44:37;2.88;;;1.00;;
62616;SDS011;62539;51.190;6.808;2023-12-29T05:47:03;1.05;;;0.95;;
62616;SDS011;62539;51.190;6.808;2023-12-29T05:49:29;1.15;;;0.93;;
62616;SDS011;62539;51.190;6.808;2023-12-29T05:51:56;1.15;;;0.90;;
62616;SDS011;62539;51.190;6.808;2023-12-29T05:54:22;1.48;;;0.80;;
62616;SDS011;62539;51.190;6.808;2023-12-29T05:56:48;2.28;;;1.10;;
62616;SDS011;62539;51.190;6.808;2023-12-29T05:59:13;2.78;;;1.10;;
62616;SDS011;62539;51.190;6.808;2023-12-29T06:01:39;1.00;;;0.70;;
62616;SDS011;62539;51.190;6.808;2023-12-29T06:04:04;1.77;;;0.95;;
62616;SDS011;62539;51.190;6.808;2023-12-29T06:06:29;1.88;;;1.10;;
62616;SDS011;62539;51.190;6.808;2023-12-29T06:08:55;2.17;;;1.10;;
62616;SDS011;62539;51.190;6.808;2023-12-29T06:11:20;1.02;;;0.77;;
62616;SDS011;62539;51.190;6.808;2023-12-29T06:13:46;1.20;;;0.90;;
62616;SDS011;62539;51.190;6.808;2023-12-29T06:16:20;3.55;;;0.90;;
62616;SDS011;62539;51.190;6.808;2023-12-29T06:18:46;1.13;;;0.90;;
62616;SDS011;62539;51.190;6.808;2023-12-29T06:21:12;3.17;;;1.13;;
62616;SDS011;62539;51.190;6.808;2023-12-29T06:23:38;1.77;;;0.82;;
62616;SDS011;62539;51.190;6.808;2023-12-29T06:26:03;4.60;;;0.90;;
62616;SDS011;62539;51.190;6.808;2023-12-29T06:28:29;0.98;;;0.75;;
62616;SDS011;62539;51.190;6.808;2023-12-29T06:30:54;1.15;;;0.80;;
62616;SDS011;62539;51.190;6.808;2023-12-29T06:33:20;0.73;;;0.70;;
62616;SDS011;62539;51.190;6.808;2023-12-29T06:35:46;1.13;;;0.85;;
62616;SDS011;62539;51.190;6.808;2023-12-29T06:38:13;1.17;;;0.80;;
62616;SDS011;62539;51.190;6.808;2023-12-29T06:40:39;1.60;;;0.70;;
62616;SDS011;62539;51.190;6.808;2023-12-29T06:43:05;2.15;;;1.00;;
62616;SDS011;62539;51.190;6.808;2023-12-29T06:45:30;1.58;;;0.75;;
62616;SDS011;62539;51.190;6.808;2023-12-29T06:47:55;2.83;;;0.90;;
62616;SDS011;62539;51.190;6.808;2023-12-29T06:50:22;1.90;;;1.00;;
62616;SDS011;62539;51.190;6.808;2023-12-29T06:52:47;0.80;;;0.80;;
62616;SDS011;62539;51.190;6.808;2023-12-29T06:55:13;1.95;;;0.95;;
62616;SDS011;62539;51.190;6.808;2023-12-29T06:57:38;0.82;;;0.63;;
62616;SDS011;62539;51.190;6.808;2023-12-29T07:00:05;2.30;;;1.10;;
62616;SDS011;62539;51.190;6.808;2023-12-29T07:02:32;5.40;;;0.93;;
62616;SDS011;62539;51.190;6.808;2023-12-29T07:04:57;1.02;;;0.90;;
62616;SDS011;62539;51.190;6.808;2023-12-29T07:07:23;4.72;;;1.00;;
62616;SDS011;62539;51.190;6.808;2023-12-29T07:09:49;1.15;;;0.88;;
62616;SDS011;62539;51.190;6.808;2023-12-29T07:12:14;1.05;;;0.68;;
62616;SDS011;62539;51.190;6.808;2023-12-29T07:14:40;0.90;;;0.68;;
62616;SDS011;62539;51.190;6.808;2023-12-29T07:17:06;1.00;;;0.90;;
62616;SDS011;62539;51.190;6.808;2023-12-29T07:19:32;0.70;;;0.68;;
62616;SDS011;62539;51.190;6.808;2023-12-29T07:22:02;1.83;;;0.82;;
62616;SDS011;62539;51.190;6.808;2023-12-29T07:24:30;0.70;;;0.60;;
62616;SDS011;62539;51.190;6.808;2023-12-29T07:26:56;1.45;;;0.70;;
62616;SDS011;62539;51.190;6.808;2023-12-29T07:29:21;0.82;;;0.77;;
62616;SDS011;62539;51.190;6.808;2023-12-29T07:31:46;1.33;;;0.90;;
62616;SDS011;62539;51.190;6.808;2023-12-29T07:34:12;1.98;;;0.80;;
62616;SDS011;62539;51.190;6.808;2023-12-29T07:36:39;0.85;;;0.70;;
62616;SDS011;62539;51.190;6.808;2023-12-29T07:39:05;1.17;;;0.80;;
62616;SDS011;62539;51.190;6.808;2023-12-29T07:41:31;0.77;;;0.75;;
62616;SDS011;62539;51.190;6.808;2023-12-29T07:43:57;1.00;;;0.70;;
62616;SDS011;62539;51.190;6.808;2023-12-29T07:46:25;1.38;;;0.70;;
62616;SDS011;62539;51.190;6.808;2023-12-29T07:48:52;2.38;;;0.82;;
62616;SDS011;62539;51.190;6.808;2023-12-29T07:51:18;1.92;;;0.80;;
62616;SDS011;62539;51.190;6.808;2023-12-29T07:53:43;1.20;;;0.77;;
62616;SDS011;62539;51.190;6.808;2023-12-29T07:56:12;1.13;;;0.80;;
62616;SDS011;62539;51.190;6.808;2023-12-29T07:58:38;1.40;;;0.80;;
62616;SDS011;62539;51.190;6.808;2023-12-29T08:01:03;2.28;;;1.00;;
62616;SDS011;62539;51.190;6.808;2023-12-29T08:03:29;1.75;;;0.95;;
62616;SDS011;62539;51.190;6.808;2023-12-29T08:05:54;1.10;;;0.75;;
62616;SDS011;62539;51.190;6.808;2023-12-29T08:08:19;1.23;;;0.88;;
62616;SDS011;62539;51.190;6.808;2023-12-29T08:10:45;4.63;;;1.00;;
62616;SDS011;62539;51.190;6.808;2023-12-29T08:13:10;2.15;;;1.05;;
62616;SDS011;62539;51.190;6.808;2023-12-29T08:15:36;4.03;;;0.90;;
62616;SDS011;62539;51.190;6.808;2023-12-29T08:18:02;2.20;;;0.80;;
62616;SDS011;62539;51.190;6.808;2023-12-29T08:20:29;3.22;;;0.93;;
62616;SDS011;62539;51.190;6.808;2023-12-29T08:22:55;1.23;;;0.88;;
62616;SDS011;62539;51.190;6.808;2023-12-29T08:25:21;0.90;;;0.70;;
62616;SDS011;62539;51.190;6.808;2023-12-29T08:27:48;2.10;;;0.90;;
62616;SDS011;62539;51.190;6.808;2023-12-29T08:30:13;3.28;;;0.90;;
62616;SDS011;62539;51.190;6.808;2023-12-29T08:32:39;4.10;;;1.00;;
62616;SDS011;62539;51.190;6.808;2023-12-29T08:35:05;1.25;;;0.75;;
62616;SDS011;62539;51.190;6.808;2023-12-29T08:37:31;2.03;;;0.80;;
62616;SDS011;62539;51.190;6.808;2023-12-29T08:39:58;0.95;;;0.88;;
62616;SDS011;62539;51.190;6.808;2023-12-29T08:42:24;1.75;;;0.80;;
62616;SDS011;62539;51.190;6.808;2023-12-29T08:44:50;1.70;;;0.90;;
62616;SDS011;62539;51.190;6.808;2023-12-29T08:47:15;1.58;;;0.90;;
62616;SDS011;62539;51.190;6.808;2023-12-29T08:49:40;1.85;;;1.00;;
62616;SDS011;62539;51.190;6.808;2023-12-29T08:52:06;1.92;;;0.90;;
62616;SDS011;62539;51.190;6.808;2023-12-29T08:54:33;1.92;;;0.85;;
62616;SDS011;62539;51.190;6.808;2023-12-29T08:56:59;1.45;;;0.80;;
62616;SDS011;62539;51.190;6.808;2023-12-29T08:59:24;2.75;;;0.95;;
62616;SDS011;62539;51.190;6.808;2023-12-29T09:01:50;3.47;;;1.00;;
62616;SDS011;62539;51.190;6.808;2023-12-29T09:04:15;1.13;;;0.80;;
62616;SDS011;62539;51.190;6.808;2023-12-29T09:06:41;4.10;;;1.00;;
62616;SDS011;62539;51.190;6.808;2023-12-29T09:09:07;2.30;;;0.90;;
62616;SDS011;62539;51.190;6.808;2023-12-29T09:11:37;5.53;;;0.90;;
62616;SDS011;62539;51.190;6.808;2023-12-29T09:14:03;2.03;;;1.17;;
62616;SDS011;62539;51.190;6.808;2023-12-29T09:16:28;12.30;;;2.22;;
62616;SDS011;62539;51.190;6.808;2023-12-29T09:18:53;10.13;;;3.28;;
62616;SDS011;62539;51.190;6.808;2023-12-29T09:21:19;14.73;;;3.90;;
62616;SDS011;62539;51.190;6.808;2023-12-29T09:23:44;10.05;;;4.43;;
62616;SDS011;62539;51.190;6.808;2023-12-29T09:26:10;12.43;;;4.28;;
62616;SDS011;62539;51.190;6.808;2023-12-29T09:28:35;21.45;;;4.10;;
62616;SDS011;62539;51.190;6.808;2023-12-29T09:31:00;15.55;;;4.70;;
62616;SDS011;62539;51.190;6.808;2023-12-29T09:33:26;17.83;;;5.22;;
62616;SDS011;62539;51.190;6.808;2023-12-29T09:35:52;16.55;;;5.05;;
62616;SDS011;62539;51.190;6.808;2023-12-29T09:38:18;12.02;;;4.30;;
62616;SDS011;62539;51.190;6.808;2023-12-29T09:40:44;13.90;;;4.97;;
62616;SDS011;62539;51.190;6.808;2023-12-29T09:43:11;16.75;;;4.47;;
62616;SDS011;62539;51.190;6.808;2023-12-29T09:45:38;13.80;;;5.40;;
62616;SDS011;62539;51.190;6.808;2023-12-29T09:48:09;14.38;;;5.03;;
62616;SDS011;62539;51.190;6.808;2023-12-29T09:50:38;22.15;;;4.95;;
62616;SDS011;62539;51.190;6.808;2023-12-29T09:53:05;15.05;;;5.10;;
62616;SDS011;62539;51.190;6.808;2023-12-29T09:55:35;15.90;;;5.15;;
62616;SDS011;62539;51.190;6.808;2023-12-29T09:58:02;16.85;;;4.93;;
62616;SDS011;62539;51.190;6.808;2023-12-29T10:00:28;15.07;;;5.20;;
62616;SDS011;62539;51.190;6.808;2023-12-29T10:02:54;11.38;;;4.68;;
62616;SDS011;62539;51.190;6.808;2023-12-29T10:05:20;24.23;;;5.05;;
62616;SDS011;62539;51.190;6.808;2023-12-29T10:07:46;15.38;;;4.78;;
62616;SDS011;62539;51.190;6.808;2023-12-29T10:10:15;12.68;;;4.70;;
62616;SDS011;62539;51.190;6.808;2023-12-29T10:12:42;15.57;;;4.80;;
62616;SDS011;62539;51.190;6.808;2023-12-29T10:15:15;9.00;;;4.00;;
62616;SDS011;62539;51.190;6.808;2023-12-29T10:18:07;10.02;;;4.13;;
62616;SDS011;62539;51.190;6.808;2023-12-29T10:23:41;11.32;;;4.25;;
62616;SDS011;62539;51.190;6.808;2023-12-29T10:26:23;12.93;;;3.97;;
62616;SDS011;62539;51.190;6.808;2023-12-29T10:28:51;8.55;;;3.92;;
62616;SDS011;62539;51.190;6.808;2023-12-29T10:31:17;16.02;;;4.53;;
62616;SDS011;62539;51.190;6.808;2023-12-29T10:33:42;8.07;;;4.00;;
62616;SDS011;62539;51.190;6.808;2023-12-29T10:36:08;9.50;;;4.25;;
62616;SDS011;62539;51.190;6.808;2023-12-29T10:38:35;11.23;;;4.38;;
62616;SDS011;62539;51.190;6.808;2023-12-29T10:41:17;13.07;;;4.18;;
62616;SDS011;62539;51.190;6.808;2023-12-29T10:43:45;8.18;;;3.58;;
62616;SDS011;62539;51.190;6.808;2023-12-29T10:46:19;10.90;;;3.90;;
62616;SDS011;62539;51.190;6.808;2023-12-29T10:48:45;11.43;;;4.25;;
62616;SDS011;62539;51.190;6.808;2023-12-29T10:51:11;10.07;;;3.70;;
62616;SDS011;62539;51.190;6.808;2023-12-29T10:53:36;10.13;;;3.80;;
62616;SDS011;62539;51.190;6.808;2023-12-29T10:56:03;12.63;;;3.65;;
62616;SDS011;62539;51.190;6.808;2023-12-29T10:58:29;9.13;;;3.80;;
62616;SDS011;62539;51.190;6.808;2023-12-29T11:00:57;9.23;;;3.47;;
62616;SDS011;62539;51.190;6.808;2023-12-29T11:03:23;8.63;;;3.30;;
62616;SDS011;62539;51.190;6.808;2023-12-29T11:05:49;8.32;;;3.10;;
62616;SDS011;62539;51.190;6.808;2023-12-29T11:08:25;15.07;;;4.22;;
62616;SDS011;62539;51.190;6.808;2023-12-29T11:10:51;8.45;;;3.05;;
62616;SDS011;62539;51.190;6.808;2023-12-29T11:13:16;6.10;;;3.20;;
62616;SDS011;62539;51.190;6.808;2023-12-29T11:15:45;11.90;;;3.78;;
62616;SDS011;62539;51.190;6.808;2023-12-29T11:18:12;8.55;;;3.65;;
62616;SDS011;62539;51.190;6.808;2023-12-29T11:20:41;8.30;;;3.13;;
62616;SDS011;62539;51.190;6.808;2023-12-29T11:23:08;8.00;;;3.40;;
62616;SDS011;62539;51.190;6.808;2023-12-29T11:25:38;13.75;;;3.28;;
62616;SDS011;62539;51.190;6.808;2023-12-29T11:28:05;8.85;;;3.03;;
62616;SDS011;62539;51.190;6.808;2023-12-29T11:30:34;7.25;;;2.97;;
62616;SDS011;62539;51.190;6.808;2023-12-29T11:33:05;8.77;;;3.28;;
62616;SDS011;62539;51.190;6.808;2023-12-29T11:35:47;5.00;;;2.60;;
62616;SDS011;62539;51.190;6.808;2023-12-29T11:38:23;4.72;;;2.72;;
62616;SDS011;62539;51.190;6.808;2023-12-29T11:41:08;6.40;;;3.53;;
62616;SDS011;62539;51.190;6.808;2023-12-29T11:43:57;8.05;;;2.92;;
62616;SDS011;62539;51.190;6.808;2023-12-29T11:46:36;7.15;;;2.90;;
62616;SDS011;62539;51.190;6.808;2023-12-29T11:49:03;11.88;;;2.75;;
62616;SDS011;62539;51.190;6.808;2023-12-29T11:51:34;6.35;;;2.58;;
62616;SDS011;62539;51.190;6.808;2023-12-29T11:54:01;6.63;;;2.90;;
62616;SDS011;62539;51.190;6.808;2023-12-29T11:59:16;6.93;;;3.13;;
62616;SDS011;62539;51.190;6.808;2023-12-29T12:01:52;5.38;;;2.78;;
62616;SDS011;62539;51.190;6.808;2023-12-29T12:04:33;7.95;;;3.03;;
62616;SDS011;62539;51.190;6.808;2023-12-29T12:07:04;5.25;;;2.85;;
62616;SDS011;62539;51.190;6.808;2023-12-29T12:09:32;5.55;;;2.25;;
62616;SDS011;62539;51.190;6.808;2023-12-29T12:12:00;5.03;;;2.55;;
62616;SDS011;62539;51.190;6.808;2023-12-29T12:14:44;11.18;;;2.90;;
62616;SDS011;62539;51.190;6.808;2023-12-29T12:17:11;13.07;;;2.20;;
62616;SDS011;62539;51.190;6.808;2023-12-29T12:19:36;9.82;;;2.50;;
62616;SDS011;62539;51.190;6.808;2023-12-29T12:22:03;9.52;;;2.92;;
62616;SDS011;62539;51.190;6.808;2023-12-29T12:24:31;7.47;;;2.50;;
62616;SDS011;62539;51.190;6.808;2023-12-29T12:27:02;10.90;;;2.92;;
62616;SDS011;62539;51.190;6.808;2023-12-29T12:29:28;4.95;;;2.40;;
62616;SDS011;62539;51.190;6.808;2023-12-29T12:31:54;8.60;;;2.55;;
62616;SDS011;62539;51.190;6.808;2023-12-29T12:34:21;6.32;;;2.53;;
62616;SDS011;62539;51.190;6.808;2023-12-29T12:36:51;8.23;;;2.67;;
62616;SDS011;62539;51.190;6.808;2023-12-29T12:39:18;4.63;;;2.03;;
62616;SDS011;62539;51.190;6.808;2023-12-29T12:41:44;7.10;;;2.60;;
62616;SDS011;62539;51.190;6.808;2023-12-29T12:44:14;5.03;;;2.40;;
62616;SDS011;62539;51.190;6.808;2023-12-29T12:46:55;4.88;;;2.38;;
62616;SDS011;62539;51.190;6.808;2023-12-29T12:49:26;5.70;;;1.90;;
62616;SDS011;62539;51.190;6.808;2023-12-29T12:51:55;6.82;;;2.22;;
62616;SDS011;62539;51.190;6.808;2023-12-29T12:54:21;6.05;;;2.08;;
62616;SDS011;62539;51.190;6.808;2023-12-29T12:56:47;5.50;;;2.10;;
62616;SDS011;62539;51.190;6.808;2023-12-29T12:59:14;4.40;;;2.33;;
62616;SDS011;62539;51.190;6.808;2023-12-29T13:01:41;4.47;;;2.25;;
62616;SDS011;62539;51.190;6.808;2023-12-29T13:04:07;4.07;;;2.10;;
62616;SDS011;62539;51.190;6.808;2023-12-29T13:06:38;4.93;;;2.00;;
62616;SDS011;62539;51.190;6.808;2023-12-29T13:09:06;4.85;;;2.10;;
62616;SDS011;62539;51.190;6.808;2023-12-29T13:11:42;6.57;;;1.90;;
62616;SDS011;62539;51.190;6.808;2023-12-29T13:14:07;7.88;;;2.30;;
62616;SDS011;62539;51.190;6.808;2023-12-29T13:16:34;4.05;;;2.08;;
62616;SDS011;62539;51.190;6.808;2023-12-29T13:19:17;4.72;;;1.80;;
62616;SDS011;62539;51.190;6.808;2023-12-29T13:21:52;4.28;;;1.80;;
62616;SDS011;62539;51.190;6.808;2023-12-29T13:24:23;3.50;;;2.03;;
62616;SDS011;62539;51.190;6.808;2023-12-29T13:26:50;3.47;;;1.75;;
62616;SDS011;62539;51.190;6.808;2023-12-29T13:29:20;4.22;;;2.00;;
62616;SDS011;62539;51.190;6.808;2023-12-29T13:31:50;6.10;;;2.33;;
62616;SDS011;62539;51.190;6.808;2023-12-29T13:34:21;5.15;;;2.55;;
62616;SDS011;62539;51.190;6.808;2023-12-29T13:37:09;4.53;;;2.30;;
62616;SDS011;62539;51.190;6.808;2023-12-29T13:42:47;6.95;;;3.15;;
62616;SDS011;62539;51.190;6.808;2023-12-29T13:45:17;11.65;;;2.85;;
62616;SDS011;62539;51.190;6.808;2023-12-29T13:47:45;15.63;;;3.47;;
62616;SDS011;62539;51.190;6.808;2023-12-29T13:50:12;9.98;;;3.33;;
62616;SDS011;62539;51.190;6.808;2023-12-29T13:52:37;9.73;;;3.38;;
62616;SDS011;62539;51.190;6.808;2023-12-29T13:55:03;15.98;;;3.15;;
62616;SDS011;62539;51.190;6.808;2023-12-29T13:57:34;6.88;;;3.15;;
62616;SDS011;62539;51.190;6.808;2023-12-29T14:00:20;14.83;;;3.50;;
62616;SDS011;62539;51.190;6.808;2023-12-29T14:05:31;8.93;;;2.70;;
62616;SDS011;62539;51.190;6.808;2023-12-29T14:08:17;7.22;;;2.67;;
62616;SDS011;62539;51.190;6.808;2023-12-29T14:10:48;6.38;;;2.60;;
62616;SDS011;62539;51.190;6.808;2023-12-29T14:13:14;7.30;;;2.97;;
62616;SDS011;62539;51.190;6.808;2023-12-29T14:15:42;9.50;;;2.85;;
62616;SDS011;62539;51.190;6.808;2023-12-29T14:18:37;7.15;;;2.83;;
62616;SDS011;62539;51.190;6.808;2023-12-29T14:24:13;7.55;;;2.60;;
62616;SDS011;62539;51.190;6.808;2023-12-29T14:26:41;7.78;;;3.08;;
62616;SDS011;62539;51.190;6.808;2023-12-29T14:29:11;8.85;;;2.50;;
62616;SDS011;62539;51.190;6.808;2023-12-29T14:31:38;8.95;;;2.80;;
62616;SDS011;62539;51.190;6.808;2023-12-29T14:34:07;8.13;;;2.60;;
62616;SDS011;62539;51.190;6.808;2023-12-29T14:36:34;9.93;;;2.83;;
62616;SDS011;62539;51.190;6.808;2023-12-29T14:39:00;6.57;;;2.42;;
62616;SDS011;62539;51.190;6.808;2023-12-29T14:41:27;8.23;;;2.60;;
62616;SDS011;62539;51.190;6.808;2023-12-29T14:43:54;6.43;;;3.00;;
62616;SDS011;62539;51.190;6.808;2023-12-29T14:46:20;9.63;;;2.50;;
62616;SDS011;62539;51.190;6.808;2023-12-29T14:48:45;8.65;;;2.15;;
62616;SDS011;62539;51.190;6.808;2023-12-29T14:51:11;7.70;;;2.88;;
62616;SDS011;62539;51.190;6.808;2023-12-29T14:53:37;4.72;;;2.33;;
62616;SDS011;62539;51.190;6.808;2023-12-29T14:56:03;5.13;;;2.25;;
62616;SDS011;62539;51.190;6.808;2023-12-29T14:58:29;5.57;;;2.42;;
62616;SDS011;62539;51.190;6.808;2023-12-29T15:00:56;4.95;;;2.40;;
62616;SDS011;62539;51.190;6.808;2023-12-29T15:03:22;4.45;;;2.50;;
62616;SDS011;62539;51.190;6.808;2023-12-29T15:05:48;5.20;;;2.70;;